createdAt,value
2018-03-28T00:00:20.360Z,50.30
2018-03-28T00:01:26.007Z,50.30
2018-03-28T00:02:31.580Z,50.20
2018-03-28T00:03:37.490Z,50.30
2018-03-28T00:04:43.262Z,50.20
2018-03-28T00:05:48.994Z,50.20
2018-03-28T00:06:54.138Z,50.20
2018-03-28T00:07:59.050Z,50.20
2018-03-28T00:09:04.234Z,50.20
2018-03-28T00:10:09.405Z,50.20
2018-03-28T00:11:14.328Z,50.20
2018-03-28T00:12:19.511Z,50.20
2018-03-28T00:13:24.390Z,50.10
2018-03-28T00:14:29.561Z,50.10
2018-03-28T00:15:34.726Z,50.10
2018-03-28T00:16:39.718Z,50.10
2018-03-28T00:17:57.343Z,50.10
2018-03-28T00:19:02.336Z,50.20
2018-03-28T00:20:07.398Z,50.20
2018-03-28T00:21:12.613Z,50.20
2018-03-28T00:22:17.586Z,50.20
2018-03-28T00:23:22.691Z,50.20
2018-03-28T00:24:27.725Z,50.20
2018-03-28T00:25:32.702Z,50.20
2018-03-28T00:26:37.537Z,50.20
2018-03-28T00:27:42.327Z,50.10
2018-03-28T00:28:47.154Z,50.80
2018-03-28T00:29:52.231Z,50.10
2018-03-28T00:30:57.033Z,50.10
2018-03-28T00:32:01.855Z,50.20
2018-03-28T00:33:06.719Z,50.20
2018-03-28T00:34:11.553Z,50.20
2018-03-28T00:35:16.665Z,50.10
2018-03-28T00:36:21.809Z,50.20
2018-03-28T00:37:26.937Z,50.20
2018-03-28T00:38:32.046Z,50.20
2018-03-28T00:39:36.895Z,50.20
2018-03-28T00:40:41.975Z,50.20
2018-03-28T00:41:47.040Z,50.20
2018-03-28T00:42:52.149Z,50.20
2018-03-28T00:43:57.070Z,50.20
2018-03-28T00:45:02.059Z,50.20
2018-03-28T00:46:07.163Z,50.20
2018-03-28T00:47:12.268Z,50.20
2018-03-28T00:48:17.315Z,50.20
2018-03-28T00:49:22.262Z,50.20
2018-03-28T00:50:27.194Z,50.20
2018-03-28T00:51:32.360Z,50.20
2018-03-28T00:52:37.384Z,50.10
2018-03-28T00:53:42.540Z,50.10
2018-03-28T00:54:47.587Z,50.20
2018-03-28T00:55:52.678Z,50.20
2018-03-28T00:56:57.672Z,50.20
2018-03-28T00:58:02.777Z,50.10
2018-03-28T00:59:08.230Z,50.20
2018-03-28T01:00:13.241Z,50.10
2018-03-28T01:01:18.153Z,50.10
2018-03-28T01:02:23.066Z,50.10
2018-03-28T01:03:27.933Z,50.00
2018-03-28T01:04:32.989Z,50.10
2018-03-28T01:05:37.976Z,50.10
2018-03-28T01:06:42.868Z,50.10
2018-03-28T01:07:47.729Z,50.10
2018-03-28T01:08:52.498Z,50.00
2018-03-28T01:09:57.571Z,50.20
2018-03-28T01:11:02.571Z,50.10
2018-03-28T01:12:07.675Z,50.00
2018-03-28T01:13:12.767Z,50.10
2018-03-28T01:14:17.786Z,50.10
2018-03-28T01:15:22.665Z,50.00
2018-03-28T01:16:27.519Z,50.10
2018-03-28T01:17:32.422Z,50.10
2018-03-28T01:18:37.212Z,50.10
2018-03-28T01:19:42.031Z,50.10
2018-03-28T01:20:47.102Z,50.10
2018-03-28T01:21:51.878Z,50.10
2018-03-28T01:22:56.886Z,50.10
2018-03-28T01:24:01.644Z,50.00
2018-03-28T01:25:06.691Z,49.90
2018-03-28T01:26:11.705Z,50.00
2018-03-28T01:27:16.737Z,50.70
2018-03-28T01:28:21.517Z,50.10
2018-03-28T01:29:26.434Z,50.10
2018-03-28T01:30:31.650Z,50.00
2018-03-28T01:31:36.557Z,50.00
2018-03-28T01:32:41.477Z,50.10
2018-03-28T01:33:46.730Z,50.00
2018-03-28T01:34:51.953Z,50.00
2018-03-28T01:35:57.086Z,50.00
2018-03-28T01:37:02.143Z,50.00
2018-03-28T01:38:07.285Z,50.00
2018-03-28T01:39:12.430Z,50.00
2018-03-28T01:40:17.659Z,50.00
2018-03-28T01:41:22.652Z,50.00
2018-03-28T01:42:27.728Z,50.00
2018-03-28T01:43:32.836Z,50.00
2018-03-28T01:44:37.988Z,50.00
2018-03-28T01:45:43.063Z,50.00
2018-03-28T01:46:48.167Z,50.00
2018-03-28T01:47:53.096Z,50.00
2018-03-28T01:48:58.286Z,50.00
2018-03-28T01:50:03.376Z,50.00
2018-03-28T01:51:08.418Z,50.00
2018-03-28T01:52:13.306Z,50.00
2018-03-28T01:53:18.516Z,50.00
2018-03-28T01:54:23.548Z,49.90
2018-03-28T01:55:28.488Z,50.00
2018-03-28T01:56:33.317Z,50.00
2018-03-28T01:57:38.363Z,50.00
2018-03-28T01:58:43.559Z,50.00
2018-03-28T01:59:48.479Z,50.00
2018-03-28T02:00:53.587Z,49.90
2018-03-28T02:01:58.615Z,49.90
2018-03-28T02:03:03.440Z,49.90
2018-03-28T02:04:08.545Z,50.00
2018-03-28T02:05:13.580Z,50.00
2018-03-28T02:06:18.633Z,49.90
2018-03-28T02:07:23.658Z,49.90
2018-03-28T02:08:28.622Z,49.90
2018-03-28T02:09:33.589Z,49.90
2018-03-28T02:10:38.372Z,49.90
2018-03-28T02:11:43.472Z,49.90
2018-03-28T02:12:48.481Z,49.90
2018-03-28T02:13:53.551Z,49.90
2018-03-28T02:14:58.357Z,49.90
2018-03-28T02:16:03.191Z,49.90
2018-03-28T02:17:08.011Z,49.90
2018-03-28T02:18:13.058Z,49.90
2018-03-28T02:19:17.915Z,49.90
2018-03-28T02:20:22.930Z,49.90
2018-03-28T02:21:28.130Z,49.90
2018-03-28T02:22:33.178Z,50.00
2018-03-28T02:23:38.067Z,49.90
2018-03-28T02:24:42.980Z,49.90
2018-03-28T02:25:48.090Z,49.90
2018-03-28T02:26:52.880Z,49.90
2018-03-28T02:27:58.009Z,49.90
2018-03-28T02:29:02.928Z,49.90
2018-03-28T02:30:07.945Z,50.00
2018-03-28T02:31:12.773Z,49.90
2018-03-28T02:32:17.552Z,49.90
2018-03-28T02:33:22.555Z,50.60
2018-03-28T02:34:27.566Z,50.60
2018-03-28T02:35:32.593Z,49.90
2018-03-28T02:36:37.616Z,49.90
2018-03-28T02:37:42.821Z,49.90
2018-03-28T02:38:48.010Z,49.90
2018-03-28T02:39:53.029Z,49.90
2018-03-28T02:40:57.878Z,49.90
2018-03-28T02:42:02.858Z,50.00
2018-03-28T02:43:07.960Z,50.00
2018-03-28T02:44:13.008Z,49.90
2018-03-28T02:45:17.977Z,49.90
2018-03-28T02:46:23.124Z,49.90
2018-03-28T02:47:28.008Z,49.90
2018-03-28T02:48:33.129Z,49.90
2018-03-28T02:49:41.207Z,49.90
2018-03-28T02:50:46.343Z,49.90
2018-03-28T02:51:51.414Z,49.90
2018-03-28T02:52:56.528Z,49.90
2018-03-28T02:54:01.810Z,49.90
2018-03-28T02:55:06.863Z,49.80
2018-03-28T02:56:12.054Z,49.80
2018-03-28T02:57:17.175Z,49.80
2018-03-28T02:58:22.236Z,49.80
2018-03-28T02:59:27.324Z,49.80
2018-03-28T03:00:32.327Z,49.80
2018-03-28T03:01:37.370Z,49.80
2018-03-28T03:02:42.416Z,49.80
2018-03-28T03:03:47.541Z,49.90
2018-03-28T03:04:52.647Z,49.80
2018-03-28T03:05:57.541Z,49.80
2018-03-28T03:07:02.579Z,49.80
2018-03-28T03:08:07.464Z,49.80
2018-03-28T03:09:12.328Z,49.80
2018-03-28T03:10:17.463Z,49.80
2018-03-28T03:11:23.497Z,49.80
2018-03-28T03:12:28.642Z,49.80
2018-03-28T03:13:33.520Z,49.80
2018-03-28T03:14:38.383Z,49.80
2018-03-28T03:15:43.425Z,49.80
2018-03-28T03:16:48.448Z,49.80
2018-03-28T03:17:53.496Z,49.80
2018-03-28T03:18:58.339Z,49.80
2018-03-28T03:20:03.284Z,50.00
2018-03-28T03:21:08.237Z,49.80
2018-03-28T03:22:13.417Z,49.90
2018-03-28T03:23:18.544Z,49.90
2018-03-28T03:24:23.661Z,49.90
2018-03-28T03:25:28.703Z,49.80
2018-03-28T03:26:33.815Z,49.80
2018-03-28T03:27:38.745Z,49.80
2018-03-28T03:28:43.805Z,49.80
2018-03-28T03:29:48.684Z,49.80
2018-03-28T03:30:53.784Z,49.80
2018-03-28T03:31:58.707Z,49.80
2018-03-28T03:33:03.766Z,49.80
2018-03-28T03:34:08.708Z,49.80
2018-03-28T03:35:13.738Z,49.80
2018-03-28T03:36:18.890Z,49.80
2018-03-28T03:37:23.929Z,49.80
2018-03-28T03:38:28.954Z,49.70
2018-03-28T03:39:33.927Z,49.80
2018-03-28T03:40:39.095Z,49.70
2018-03-28T03:41:44.097Z,49.80
2018-03-28T03:42:49.215Z,49.80
2018-03-28T03:43:54.369Z,49.70
2018-03-28T03:44:59.554Z,49.80
2018-03-28T03:46:04.799Z,49.80
2018-03-28T03:47:09.794Z,49.70
2018-03-28T03:48:14.828Z,49.80
2018-03-28T03:49:20.000Z,49.80
2018-03-28T03:50:25.206Z,49.80
2018-03-28T03:51:30.435Z,49.70
2018-03-28T03:52:35.626Z,49.80
2018-03-28T03:53:40.913Z,49.80
2018-03-28T03:54:46.127Z,49.80
2018-03-28T03:55:51.254Z,49.70
2018-03-28T03:56:56.473Z,49.80
2018-03-28T03:58:01.625Z,49.80
2018-03-28T03:59:06.734Z,49.70
2018-03-28T04:00:11.751Z,49.70
2018-03-28T04:01:16.813Z,49.70
2018-03-28T04:02:21.803Z,49.70
2018-03-28T04:03:26.724Z,49.70
2018-03-28T04:04:31.921Z,49.60
2018-03-28T04:05:37.049Z,49.80
2018-03-28T04:06:42.124Z,49.70
2018-03-28T04:07:47.189Z,49.70
2018-03-28T04:08:52.001Z,49.70
2018-03-28T04:09:57.097Z,49.70
2018-03-28T04:11:02.162Z,49.70
2018-03-28T04:12:07.275Z,49.70
2018-03-28T04:13:12.279Z,49.70
2018-03-28T04:14:17.129Z,49.70
2018-03-28T04:15:22.214Z,49.60
2018-03-28T04:16:27.080Z,49.80
2018-03-28T04:17:32.038Z,49.70
2018-03-28T04:18:37.224Z,49.70
2018-03-28T04:19:42.269Z,49.70
2018-03-28T04:20:47.355Z,49.70
2018-03-28T04:21:52.275Z,49.70
2018-03-28T04:22:57.376Z,49.70
2018-03-28T04:24:02.414Z,49.60
2018-03-28T04:25:07.538Z,49.80
2018-03-28T04:26:12.448Z,49.70
2018-03-28T04:27:17.396Z,49.70
2018-03-28T04:28:22.393Z,49.80
2018-03-28T04:29:27.553Z,49.70
2018-03-28T04:30:32.659Z,49.70
2018-03-28T04:31:37.653Z,49.60
2018-03-28T04:32:42.531Z,49.70
2018-03-28T04:33:47.436Z,49.70
2018-03-28T04:34:52.557Z,49.70
2018-03-28T04:35:57.659Z,49.70
2018-03-28T04:37:03.048Z,49.90
2018-03-28T04:38:08.019Z,49.60
2018-03-28T04:39:12.866Z,49.60
2018-03-28T04:40:17.672Z,49.60
2018-03-28T04:41:22.768Z,49.70
2018-03-28T04:42:27.830Z,49.70
2018-03-28T04:43:32.962Z,49.70
2018-03-28T04:44:38.036Z,49.70
2018-03-28T04:45:43.175Z,49.70
2018-03-28T04:46:48.227Z,49.70
2018-03-28T04:47:53.238Z,49.60
2018-03-28T04:48:58.408Z,50.30
2018-03-28T04:50:03.532Z,49.60
2018-03-28T04:51:08.595Z,50.30
2018-03-28T04:52:13.682Z,49.70
2018-03-28T04:53:18.764Z,49.60
2018-03-28T04:54:23.892Z,49.60
2018-03-28T04:55:29.031Z,49.60
2018-03-28T04:56:34.305Z,49.60
2018-03-28T04:57:39.314Z,49.60
2018-03-28T04:58:44.355Z,49.60
2018-03-28T04:59:49.261Z,49.60
2018-03-28T05:00:54.374Z,49.60
2018-03-28T05:01:59.222Z,49.60
2018-03-28T05:03:04.366Z,49.70
2018-03-28T05:04:09.708Z,49.70
2018-03-28T05:05:14.697Z,49.50
2018-03-28T05:06:19.615Z,48.10
2018-03-28T05:07:24.658Z,46.00
2018-03-28T05:08:29.654Z,44.90
2018-03-28T05:09:34.740Z,44.10
2018-03-28T05:10:39.613Z,43.40
2018-03-28T05:11:44.710Z,42.90
2018-03-28T05:12:49.585Z,42.60
2018-03-28T05:13:54.544Z,44.60
2018-03-28T05:14:59.668Z,46.60
2018-03-28T05:16:04.749Z,46.40
2018-03-28T05:17:09.694Z,46.10
2018-03-28T05:18:14.813Z,45.70
2018-03-28T05:19:19.865Z,45.40
2018-03-28T05:20:24.858Z,45.20
2018-03-28T05:21:29.981Z,45.10
2018-03-28T05:22:35.215Z,45.00
2018-03-28T05:23:40.374Z,45.20
2018-03-28T05:24:45.537Z,45.30
2018-03-28T05:25:50.731Z,45.30
2018-03-28T05:26:55.857Z,45.50
2018-03-28T05:28:00.930Z,45.60
2018-03-28T05:29:06.036Z,45.60
2018-03-28T05:30:11.109Z,45.60
2018-03-28T05:31:16.612Z,45.70
2018-03-28T05:32:22.352Z,46.40
2018-03-28T05:33:30.113Z,45.70
2018-03-28T05:34:35.301Z,45.80
2018-03-28T05:35:40.385Z,45.80
2018-03-28T05:36:47.844Z,45.70
2018-03-28T05:37:53.268Z,45.80
2018-03-28T05:38:58.598Z,45.80
2018-03-28T05:40:03.981Z,45.60
2018-03-28T05:41:09.178Z,45.60
2018-03-28T05:42:14.573Z,46.30
2018-03-28T05:43:19.738Z,45.70
2018-03-28T05:44:24.893Z,45.70
2018-03-28T05:45:30.067Z,45.80
2018-03-28T05:46:35.965Z,45.90
2018-03-28T05:47:41.149Z,46.10
2018-03-28T05:48:46.249Z,46.30
2018-03-28T05:49:51.308Z,46.30
2018-03-28T05:50:56.685Z,46.40
2018-03-28T05:52:01.789Z,45.90
2018-03-28T05:53:07.067Z,45.90
2018-03-28T05:54:12.294Z,45.90
2018-03-28T05:55:17.460Z,45.90
2018-03-28T05:56:22.610Z,46.10
2018-03-28T05:57:27.731Z,46.20
2018-03-28T05:58:32.932Z,46.20
2018-03-28T05:59:38.050Z,46.20
2018-03-28T06:00:43.745Z,46.20
2018-03-28T06:01:48.955Z,46.30
2018-03-28T06:02:54.526Z,46.30
2018-03-28T06:03:59.621Z,46.40
2018-03-28T06:05:04.737Z,46.40
2018-03-28T06:06:09.714Z,46.40
2018-03-28T06:07:14.706Z,46.60
2018-03-28T06:08:19.806Z,47.30
2018-03-28T06:09:24.967Z,46.70
2018-03-28T06:10:29.978Z,46.80
2018-03-28T06:11:35.056Z,46.40
2018-03-28T06:12:40.141Z,45.80
2018-03-28T06:13:45.086Z,45.60
2018-03-28T06:14:50.217Z,45.70
2018-03-28T06:15:56.155Z,45.80
2018-03-28T06:17:01.355Z,45.60
2018-03-28T06:18:06.421Z,45.70
2018-03-28T06:19:11.662Z,45.70
2018-03-28T06:20:16.700Z,45.70
2018-03-28T06:21:21.831Z,45.80
2018-03-28T06:22:26.932Z,45.40
2018-03-28T06:23:32.097Z,44.40
2018-03-28T06:24:37.259Z,44.20
2018-03-28T06:25:42.438Z,43.90
2018-03-28T06:26:47.616Z,43.90
2018-03-28T06:27:52.707Z,43.90
2018-03-28T06:28:57.807Z,43.70
2018-03-28T06:30:03.036Z,44.00
2018-03-28T06:31:07.973Z,43.90
2018-03-28T06:32:13.133Z,44.00
2018-03-28T06:33:18.907Z,44.30
2018-03-28T06:34:24.729Z,44.60
2018-03-28T06:35:30.425Z,44.70
2018-03-28T06:36:36.059Z,44.90
2018-03-28T06:37:42.045Z,45.00
2018-03-28T06:38:47.133Z,45.10
2018-03-28T06:39:52.316Z,45.20
2018-03-28T06:40:57.543Z,45.30
2018-03-28T06:42:02.600Z,45.40
2018-03-28T06:43:07.810Z,45.50
2018-03-28T06:44:13.020Z,45.50
2018-03-28T06:45:18.045Z,45.70
2018-03-28T06:46:23.220Z,46.00
2018-03-28T06:47:28.286Z,46.20
2018-03-28T06:48:33.307Z,46.20
2018-03-28T06:49:38.469Z,46.30
2018-03-28T06:50:43.650Z,46.40
2018-03-28T06:51:48.678Z,46.40
2018-03-28T06:52:53.843Z,46.50
2018-03-28T06:53:59.064Z,46.50
2018-03-28T06:55:04.025Z,46.60
2018-03-28T06:56:09.080Z,46.60
2018-03-28T06:57:14.310Z,46.70
2018-03-28T06:58:19.262Z,46.70
2018-03-28T06:59:24.533Z,46.70
2018-03-28T07:00:29.421Z,46.80
2018-03-28T07:01:34.450Z,46.80
2018-03-28T07:02:39.673Z,46.90
2018-03-28T07:03:44.680Z,46.90
2018-03-28T07:04:49.761Z,47.00
2018-03-28T07:05:54.795Z,47.10
2018-03-28T07:06:59.923Z,47.20
2018-03-28T07:08:05.055Z,47.90
2018-03-28T07:09:10.311Z,47.40
2018-03-28T07:10:15.407Z,47.40
2018-03-28T07:11:20.489Z,47.40
2018-03-28T07:12:25.602Z,47.50
2018-03-28T07:13:30.568Z,47.60
2018-03-28T07:14:35.463Z,47.50
2018-03-28T07:15:40.489Z,47.50
2018-03-28T07:16:45.635Z,47.60
2018-03-28T07:17:50.566Z,47.50
2018-03-28T07:18:55.872Z,47.50
2018-03-28T07:20:00.950Z,47.40
2018-03-28T07:21:05.972Z,47.40
2018-03-28T07:22:11.034Z,47.40
2018-03-28T07:23:16.137Z,47.30
2018-03-28T07:24:21.098Z,47.30
2018-03-28T07:25:37.997Z,47.30
2018-03-28T07:26:43.082Z,47.30
2018-03-28T07:27:47.941Z,47.30
2018-03-28T07:28:52.931Z,47.30
2018-03-28T07:29:57.853Z,47.20
2018-03-28T07:31:03.013Z,47.20
2018-03-28T07:32:07.922Z,47.20
2018-03-28T07:33:12.933Z,47.20
2018-03-28T07:34:18.019Z,47.20
2018-03-28T07:35:22.871Z,47.20
2018-03-28T07:36:27.792Z,47.20
2018-03-28T07:37:32.811Z,47.20
2018-03-28T07:38:37.572Z,47.30
2018-03-28T07:39:42.464Z,47.20
2018-03-28T07:40:47.315Z,47.10
2018-03-28T07:41:52.061Z,47.20
2018-03-28T07:42:56.996Z,47.40
2018-03-28T07:44:02.415Z,47.60
2018-03-28T07:45:07.549Z,47.70
2018-03-28T07:46:12.569Z,48.10
2018-03-28T07:47:17.815Z,48.00
2018-03-28T07:48:23.011Z,48.10
2018-03-28T07:49:28.196Z,48.00
2018-03-28T07:50:33.021Z,48.00
2018-03-28T07:51:38.218Z,48.10
2018-03-28T07:52:43.082Z,48.30
2018-03-28T07:53:47.988Z,48.20
2018-03-28T07:54:53.042Z,48.40
2018-03-28T07:55:58.194Z,48.50
2018-03-28T07:57:03.178Z,48.40
2018-03-28T07:58:08.041Z,48.50
2018-03-28T07:59:12.982Z,48.60
2018-03-28T08:00:18.212Z,48.60
2018-03-28T08:01:23.384Z,48.70
2018-03-28T08:02:28.479Z,48.80
2018-03-28T08:03:33.647Z,48.80
2018-03-28T08:04:38.853Z,48.90
2018-03-28T08:05:46.341Z,48.90
2018-03-28T08:06:51.450Z,49.00
2018-03-28T08:07:56.730Z,49.00
2018-03-28T08:09:01.910Z,49.00
2018-03-28T08:10:07.012Z,48.90
2018-03-28T08:11:11.982Z,48.90
2018-03-28T08:12:17.072Z,48.90
2018-03-28T08:13:21.954Z,49.60
2018-03-28T08:14:27.003Z,48.90
2018-03-28T08:15:32.117Z,48.90
2018-03-28T08:16:37.189Z,48.90
2018-03-28T08:17:42.230Z,48.80
2018-03-28T08:18:47.222Z,48.90
2018-03-28T08:19:52.419Z,48.90
2018-03-28T08:20:57.613Z,49.00
2018-03-28T08:22:02.672Z,49.00
2018-03-28T08:23:07.857Z,49.00
2018-03-28T08:24:12.948Z,48.90
2018-03-28T08:25:18.124Z,48.90
2018-03-28T08:26:23.320Z,48.90
2018-03-28T08:27:28.449Z,48.90
2018-03-28T08:28:33.507Z,48.90
2018-03-28T08:29:38.649Z,48.90
2018-03-28T08:30:43.770Z,49.60
2018-03-28T08:31:48.890Z,49.60
2018-03-28T08:32:54.105Z,49.00
2018-03-28T08:33:59.296Z,49.00
2018-03-28T08:35:04.472Z,49.00
2018-03-28T08:36:09.595Z,49.00
2018-03-28T08:37:14.680Z,49.00
2018-03-28T08:38:19.833Z,49.00
2018-03-28T08:39:24.998Z,49.00
2018-03-28T08:40:30.202Z,49.00
2018-03-28T08:41:35.363Z,49.10
2018-03-28T08:42:41.060Z,49.00
2018-03-28T08:43:46.201Z,49.00
2018-03-28T08:44:51.159Z,49.00
2018-03-28T08:45:56.272Z,49.00
2018-03-28T08:47:01.187Z,49.00
2018-03-28T08:48:07.862Z,49.00
2018-03-28T08:49:13.041Z,49.00
2018-03-28T08:50:18.129Z,49.00
2018-03-28T08:51:23.217Z,48.90
2018-03-28T08:52:28.390Z,48.90
2018-03-28T08:53:33.368Z,48.90
2018-03-28T08:54:38.292Z,48.90
2018-03-28T08:55:43.395Z,49.00
2018-03-28T08:56:48.513Z,48.90
2018-03-28T08:57:53.395Z,48.90
2018-03-28T08:58:58.565Z,48.90
2018-03-28T09:00:03.677Z,48.90
2018-03-28T09:01:08.700Z,48.90
2018-03-28T09:02:13.887Z,48.80
2018-03-28T09:03:18.902Z,48.80
2018-03-28T09:04:24.098Z,48.80
2018-03-28T09:05:29.198Z,48.80
2018-03-28T09:06:35.099Z,48.90
2018-03-28T09:07:40.279Z,48.90
2018-03-28T09:08:45.611Z,49.00
2018-03-28T09:09:50.511Z,49.10
2018-03-28T09:10:55.426Z,49.20
2018-03-28T09:12:00.556Z,49.20
2018-03-28T09:13:05.762Z,49.20
2018-03-28T09:14:11.057Z,49.40
2018-03-28T09:15:16.258Z,50.00
2018-03-28T09:16:21.389Z,50.00
2018-03-28T09:17:26.582Z,49.40
2018-03-28T09:18:31.638Z,49.50
2018-03-28T09:19:36.693Z,49.50
2018-03-28T09:20:41.926Z,49.70
2018-03-28T09:21:46.931Z,49.80
2018-03-28T09:22:52.015Z,49.80
2018-03-28T09:23:57.134Z,49.90
2018-03-28T09:25:02.209Z,50.00
2018-03-28T09:26:07.319Z,50.00
2018-03-28T09:27:12.342Z,50.60
2018-03-28T09:28:17.353Z,50.00
2018-03-28T09:29:22.337Z,50.00
2018-03-28T09:30:27.339Z,50.00
2018-03-28T09:31:32.364Z,50.00
2018-03-28T09:32:37.421Z,50.00
2018-03-28T09:33:42.379Z,50.00
2018-03-28T09:34:47.435Z,50.00
2018-03-28T09:35:53.424Z,50.10
2018-03-28T09:36:58.514Z,50.10
2018-03-28T09:38:03.740Z,50.20
2018-03-28T09:39:08.955Z,50.10
2018-03-28T09:40:13.945Z,50.20
2018-03-28T09:41:19.041Z,50.10
2018-03-28T09:42:24.139Z,50.10
2018-03-28T09:43:29.260Z,50.00
2018-03-28T09:44:34.146Z,50.00
2018-03-28T09:45:39.422Z,50.00
2018-03-28T09:46:44.337Z,50.10
2018-03-28T09:47:49.331Z,50.00
2018-03-28T09:48:54.547Z,50.10
2018-03-28T09:49:59.520Z,50.00
2018-03-28T09:51:04.657Z,50.10
2018-03-28T09:52:09.643Z,50.10
2018-03-28T09:53:14.577Z,50.10
2018-03-28T09:54:19.794Z,50.10
2018-03-28T09:55:24.658Z,50.10
2018-03-28T09:56:29.854Z,50.00
2018-03-28T09:57:34.954Z,50.00
2018-03-28T09:58:39.896Z,50.10
2018-03-28T09:59:44.972Z,50.10
2018-03-28T10:00:50.112Z,50.10
2018-03-28T10:01:55.235Z,50.10
2018-03-28T10:03:00.397Z,50.20
2018-03-28T10:04:05.394Z,50.40
2018-03-28T10:05:10.402Z,50.50
2018-03-28T10:06:15.375Z,50.70
2018-03-28T10:07:20.505Z,51.30
2018-03-28T10:08:25.608Z,50.80
2018-03-28T10:09:30.715Z,50.70
2018-03-28T10:10:35.855Z,50.70
2018-03-28T10:11:40.841Z,50.80
2018-03-28T10:12:45.769Z,50.70
2018-03-28T10:13:50.984Z,50.60
2018-03-28T10:14:55.853Z,49.10
2018-03-28T10:16:00.924Z,48.70
2018-03-28T10:17:05.728Z,48.00
2018-03-28T10:18:10.616Z,47.90
2018-03-28T10:19:15.603Z,48.00
2018-03-28T10:20:20.774Z,48.50
2018-03-28T10:21:25.898Z,49.30
2018-03-28T10:22:31.071Z,50.00
2018-03-28T10:23:36.197Z,50.30
2018-03-28T10:24:41.274Z,50.40
2018-03-28T10:25:46.279Z,50.50
2018-03-28T10:26:51.424Z,50.80
2018-03-28T10:27:56.453Z,50.90
2018-03-28T10:29:01.640Z,51.00
2018-03-28T10:30:06.696Z,51.20
2018-03-28T10:31:11.780Z,51.30
2018-03-28T10:32:16.771Z,51.60
2018-03-28T10:33:21.829Z,51.60
2018-03-28T10:34:26.990Z,51.70
2018-03-28T10:35:32.065Z,51.70
2018-03-28T10:36:37.168Z,51.90
2018-03-28T10:37:42.235Z,51.90
2018-03-28T10:38:47.292Z,51.90
2018-03-28T10:39:52.367Z,51.90
2018-03-28T10:40:57.481Z,51.90
2018-03-28T10:42:02.569Z,52.00
2018-03-28T10:43:07.521Z,52.00
2018-03-28T10:44:12.680Z,52.00
2018-03-28T10:45:17.570Z,52.20
2018-03-28T10:46:22.445Z,52.20
2018-03-28T10:47:27.576Z,52.30
2018-03-28T10:48:32.631Z,52.30
2018-03-28T10:49:37.554Z,52.30
2018-03-28T10:50:42.659Z,52.40
2018-03-28T10:51:47.687Z,52.40
2018-03-28T10:52:52.656Z,52.40
2018-03-28T10:53:57.716Z,52.50
2018-03-28T10:55:02.568Z,52.70
2018-03-28T10:56:07.550Z,52.60
2018-03-28T10:57:12.401Z,52.70
2018-03-28T10:58:17.359Z,53.40
2018-03-28T10:59:22.349Z,52.80
2018-03-28T11:00:27.371Z,52.80
2018-03-28T11:01:32.160Z,52.80
2018-03-28T11:02:37.269Z,52.90
2018-03-28T11:03:42.312Z,52.90
2018-03-28T11:04:47.381Z,52.90
2018-03-28T11:05:52.232Z,53.10
2018-03-28T11:06:57.281Z,53.00
2018-03-28T11:08:02.280Z,53.00
2018-03-28T11:09:07.379Z,53.10
2018-03-28T11:10:12.416Z,53.00
2018-03-28T11:11:17.273Z,53.00
2018-03-28T11:12:22.309Z,53.10
2018-03-28T11:13:27.112Z,53.00
2018-03-28T11:14:32.184Z,53.00
2018-03-28T11:15:37.134Z,53.00
2018-03-28T11:16:42.114Z,53.00
2018-03-28T11:17:46.984Z,53.00
2018-03-28T11:18:52.168Z,53.00
2018-03-28T11:19:57.125Z,53.10
2018-03-28T11:21:02.178Z,53.00
2018-03-28T11:22:07.221Z,52.90
2018-03-28T11:23:12.326Z,53.00
2018-03-28T11:24:17.294Z,53.00
2018-03-28T11:25:22.463Z,52.90
2018-03-28T11:26:27.393Z,52.80
2018-03-28T11:27:32.390Z,52.90
2018-03-28T11:28:37.373Z,52.70
2018-03-28T11:29:42.574Z,52.70
2018-03-28T11:30:47.703Z,52.70
2018-03-28T11:31:52.852Z,52.60
2018-03-28T11:32:57.790Z,52.60
2018-03-28T11:34:02.884Z,52.60
2018-03-28T11:35:08.116Z,52.50
2018-03-28T11:36:13.194Z,52.50
2018-03-28T11:37:18.331Z,52.40
2018-03-28T11:38:23.514Z,52.40
2018-03-28T11:39:28.705Z,52.40
2018-03-28T11:40:33.764Z,52.40
2018-03-28T11:41:38.930Z,52.30
2018-03-28T11:42:43.895Z,52.40
2018-03-28T11:43:49.066Z,52.40
2018-03-28T11:44:54.129Z,52.40
2018-03-28T11:45:59.133Z,52.40
2018-03-28T11:47:04.160Z,52.50
2018-03-28T11:48:09.125Z,52.80
2018-03-28T11:49:13.988Z,52.90
2018-03-28T11:50:19.021Z,53.00
2018-03-28T11:51:23.904Z,52.80
2018-03-28T11:52:29.032Z,53.00
2018-03-28T11:53:34.111Z,52.90
2018-03-28T11:54:39.151Z,52.90
2018-03-28T11:55:43.982Z,52.90
2018-03-28T11:56:48.889Z,52.90
2018-03-28T11:57:53.950Z,52.80
2018-03-28T11:58:58.973Z,53.10
2018-03-28T12:00:04.017Z,53.20
2018-03-28T12:01:09.006Z,53.40
2018-03-28T12:02:13.981Z,53.30
2018-03-28T12:03:18.833Z,53.30
2018-03-28T12:04:23.910Z,53.20
2018-03-28T12:05:28.712Z,53.30
2018-03-28T12:06:33.699Z,53.20
2018-03-28T12:07:38.827Z,53.20
2018-03-28T12:08:43.817Z,53.30
2018-03-28T12:09:48.770Z,53.30
2018-03-28T12:10:53.864Z,53.20
2018-03-28T12:11:58.858Z,53.00
2018-03-28T12:13:03.837Z,53.00
2018-03-28T12:14:08.851Z,53.00
2018-03-28T12:15:13.818Z,52.90
2018-03-28T12:16:18.885Z,52.90
2018-03-28T12:17:23.852Z,52.80
2018-03-28T12:18:28.937Z,52.80
2018-03-28T12:19:34.053Z,52.80
2018-03-28T12:20:39.009Z,52.70
2018-03-28T12:21:44.045Z,52.70
2018-03-28T12:22:48.863Z,52.70
2018-03-28T12:23:53.841Z,52.60
2018-03-28T12:24:59.015Z,52.70
2018-03-28T12:26:04.060Z,52.60
2018-03-28T12:27:09.143Z,52.60
2018-03-28T12:28:14.182Z,52.60
2018-03-28T12:29:19.114Z,52.50
2018-03-28T12:30:24.247Z,52.60
2018-03-28T12:31:29.354Z,52.50
2018-03-28T12:32:34.408Z,52.50
2018-03-28T12:33:39.357Z,52.40
2018-03-28T12:34:44.360Z,52.40
2018-03-28T12:35:49.541Z,52.30
2018-03-28T12:36:54.495Z,52.40
2018-03-28T12:37:59.735Z,52.40
2018-03-28T12:39:04.645Z,52.40
2018-03-28T12:40:09.535Z,52.20
2018-03-28T12:41:14.396Z,52.20
2018-03-28T12:42:19.509Z,52.20
2018-03-28T12:43:24.546Z,52.20
2018-03-28T12:44:29.613Z,52.20
2018-03-28T12:45:34.581Z,52.10
2018-03-28T12:46:39.398Z,52.50
2018-03-28T12:47:44.269Z,52.10
2018-03-28T12:48:49.114Z,52.10
2018-03-28T12:49:54.287Z,52.00
2018-03-28T12:50:58.971Z,52.00
2018-03-28T12:52:03.727Z,52.00
2018-03-28T12:53:08.776Z,52.00
2018-03-28T12:54:13.882Z,52.00
2018-03-28T12:55:18.969Z,52.00
2018-03-28T12:56:24.009Z,52.10
2018-03-28T12:57:29.106Z,52.00
2018-03-28T12:58:34.146Z,52.00
2018-03-28T12:59:39.244Z,52.00
2018-03-28T13:00:44.296Z,52.00
2018-03-28T13:01:49.324Z,52.00
2018-03-28T13:02:54.339Z,52.50
2018-03-28T13:03:59.151Z,51.90
2018-03-28T13:05:04.075Z,51.90
2018-03-28T13:06:09.226Z,51.90
2018-03-28T13:07:14.395Z,51.90
2018-03-28T13:08:19.225Z,51.90
2018-03-28T13:09:24.373Z,51.90
2018-03-28T13:10:29.207Z,51.90
2018-03-28T13:11:34.377Z,51.90
2018-03-28T13:12:39.534Z,51.90
2018-03-28T13:13:44.455Z,51.80
2018-03-28T13:14:49.323Z,51.80
2018-03-28T13:15:54.256Z,51.80
2018-03-28T13:16:59.181Z,51.80
2018-03-28T13:18:04.312Z,51.80
2018-03-28T13:19:09.434Z,51.90
2018-03-28T13:20:14.707Z,51.80
2018-03-28T13:21:19.881Z,51.80
2018-03-28T13:22:25.075Z,51.80
2018-03-28T13:23:30.291Z,51.70
2018-03-28T13:24:35.554Z,51.70
2018-03-28T13:25:40.768Z,51.70
2018-03-28T13:26:45.795Z,51.70
2018-03-28T13:27:50.963Z,52.30
2018-03-28T13:28:55.939Z,51.90
2018-03-28T13:30:01.100Z,52.20
2018-03-28T13:31:06.018Z,52.00
2018-03-28T13:32:10.910Z,51.80
2018-03-28T13:33:15.833Z,51.30
2018-03-28T13:34:20.910Z,51.00
2018-03-28T13:35:26.001Z,51.10
2018-03-28T13:36:30.919Z,51.20
2018-03-28T13:37:36.004Z,51.50
2018-03-28T13:38:41.121Z,51.50
2018-03-28T13:39:46.200Z,51.60
2018-03-28T13:40:51.157Z,52.30
2018-03-28T13:41:56.306Z,51.80
2018-03-28T13:43:01.435Z,51.80
2018-03-28T13:44:06.626Z,51.90
2018-03-28T13:45:11.613Z,51.90
2018-03-28T13:46:16.549Z,52.00
2018-03-28T13:47:21.376Z,52.30
2018-03-28T13:48:26.454Z,52.40
2018-03-28T13:49:32.591Z,52.40
2018-03-28T13:50:38.091Z,52.40
2018-03-28T13:51:43.142Z,52.40
2018-03-28T13:52:48.230Z,52.40
2018-03-28T13:53:53.277Z,52.50
2018-03-28T13:54:58.388Z,52.50
2018-03-28T13:56:03.490Z,52.40
2018-03-28T13:57:08.653Z,52.40
2018-03-28T13:58:13.585Z,52.40